Time,TemperatureF,DewpointF,PressureIn,WindDirection,WindDirectionDegrees,WindSpeedMPH,WindSpeedGustMPH,Humidity,HourlyPrecipIn,Conditions,Clouds,dailyrainin,SolarRadiationWatts/m^2,SoftwareType,DateUTC
2013-05-30 00:03:00,68.0,60.0,-100.00,WSW,249,4.0,10.0,75,0.00,,,0.68,0.000000,,2013-05-30 04:03:00,
2013-05-30 00:13:00,68.0,60.0,-100.00,WSW,249,4.0,10.0,75,0.00,,,0.68,0.000000,,2013-05-30 04:13:00,
2013-05-30 00:23:00,68.0,60.0,-100.00,WSW,249,4.0,10.0,75,0.00,,,0.68,0.000000,,2013-05-30 04:23:00,
2013-05-30 00:53:00,66.0,60.0,-100.00,WNW,290,2.0,6.0,82,0.00,,,0.68,0.000000,,2013-05-30 04:53:00,
2013-05-30 01:02:00,66.0,60.0,-100.00,WNW,290,2.0,6.0,82,0.00,,,0.68,0.000000,,2013-05-30 05:02:00,
2013-05-30 01:12:00,66.0,60.0,-100.00,WNW,290,2.0,6.0,82,0.00,,,0.68,0.000000,,2013-05-30 05:12:00,
2013-05-30 01:22:00,66.0,60.0,-100.00,WNW,290,2.0,6.0,82,0.00,,,0.68,0.000000,,2013-05-30 05:22:00,
2013-05-30 01:52:00,64.0,60.0,-100.00,SSW,203,2.0,5.0,87,0.00,,,0.61,0.000000,,2013-05-30 05:52:00,
2013-05-30 02:01:00,64.0,60.0,-100.00,SSW,203,2.0,5.0,87,0.00,,,0.61,0.000000,,2013-05-30 06:01:00,
2013-05-30 02:12:00,64.0,60.0,-100.00,SSW,203,2.0,5.0,87,0.00,,,0.61,0.000000,,2013-05-30 06:12:00,
2013-05-30 02:22:00,64.0,60.0,-100.00,SSW,203,2.0,5.0,87,0.00,,,0.61,0.000000,,2013-05-30 06:22:00,
2013-05-30 02:52:00,65.0,60.0,-100.00,SSW,200,1.0,5.0,85,0.00,,,0.55,0.000000,,2013-05-30 06:52:00,
2013-05-30 03:02:00,65.0,60.0,-100.00,SSW,200,1.0,5.0,85,0.00,,,0.55,0.000000,,2013-05-30 07:02:00,
2013-05-30 03:12:00,65.0,60.0,-100.00,SSW,200,1.0,5.0,85,0.00,,,0.55,0.000000,,2013-05-30 07:12:00,
2013-05-30 03:22:00,65.0,60.0,-100.00,SSW,200,1.0,5.0,85,0.00,,,0.55,0.000000,,2013-05-30 07:22:00,
2013-05-30 03:52:00,63.0,59.0,-100.00,North,354,0.0,3.0,88,0.00,,,0.52,0.000000,,2013-05-30 07:52:00,
2013-05-30 04:02:00,63.0,59.0,-100.00,North,354,0.0,3.0,88,0.00,,,0.52,0.000000,,2013-05-30 08:02:00,
2013-05-30 04:11:00,63.0,59.0,-100.00,North,354,0.0,3.0,88,0.00,,,0.52,0.000000,,2013-05-30 08:11:00,
2013-05-30 04:22:00,63.0,59.0,-100.00,North,354,0.0,3.0,88,0.00,,,0.52,0.000000,,2013-05-30 08:22:00,
2013-05-30 04:53:00,63.0,61.0,-100.00,SW,215,2.0,4.0,92,0.00,,,0.52,0.000000,,2013-05-30 08:53:00,
2013-05-30 05:01:00,63.0,61.0,-100.00,SW,215,2.0,4.0,92,0.00,,,0.52,0.000000,,2013-05-30 09:01:00,
2013-05-30 05:11:00,63.0,61.0,-100.00,SW,215,2.0,4.0,92,0.00,,,0.52,0.000000,,2013-05-30 09:11:00,
2013-05-30 05:22:00,63.0,61.0,-100.00,SW,215,2.0,4.0,92,0.00,,,0.52,0.000000,,2013-05-30 09:22:00,
2013-05-30 05:53:00,67.0,61.0,-100.00,SW,221,4.0,8.0,80,0.00,,,0.42,0.000000,,2013-05-30 09:53:00,
2013-05-30 06:03:00,67.0,61.0,-100.00,SW,221,4.0,8.0,80,0.00,,,0.42,0.000000,,2013-05-30 10:03:00,
2013-05-30 06:13:00,67.0,61.0,-100.00,SW,221,4.0,8.0,80,0.00,,,0.42,0.000000,,2013-05-30 10:13:00,
2013-05-30 06:23:00,67.0,61.0,-100.00,SW,221,4.0,8.0,80,0.00,,,0.42,0.000000,,2013-05-30 10:23:00,
2013-05-30 06:52:00,67.0,62.0,-100.00,SW,229,4.0,9.0,83,0.00,,,0.13,13.000000,,2013-05-30 10:52:00,
2013-05-30 07:03:00,67.0,62.0,-100.00,SW,229,4.0,9.0,83,0.00,,,0.13,13.000000,,2013-05-30 11:03:00,
2013-05-30 07:12:00,67.0,62.0,-100.00,SW,229,4.0,9.0,83,0.00,,,0.13,13.000000,,2013-05-30 11:12:00,
2013-05-30 07:22:00,67.0,62.0,-100.00,SW,229,4.0,9.0,83,0.00,,,0.13,13.000000,,2013-05-30 11:22:00,
2013-05-30 07:52:00,69.0,62.0,-100.00,SW,234,4.0,8.0,79,0.00,,,0.02,94.000000,,2013-05-30 11:52:00,
2013-05-30 08:02:00,69.0,62.0,-100.00,SW,234,4.0,8.0,79,0.00,,,0.02,94.000000,,2013-05-30 12:02:00,
2013-05-30 08:11:00,69.0,62.0,-100.00,SW,234,4.0,8.0,79,0.00,,,0.02,94.000000,,2013-05-30 12:11:00,
2013-05-30 08:22:00,69.0,62.0,-100.00,SW,234,4.0,8.0,79,0.00,,,0.02,94.000000,,2013-05-30 12:22:00,
2013-05-30 08:52:00,74.0,62.0,-100.00,WSW,244,7.0,12.0,67,0.00,,,0.02,254.000000,,2013-05-30 12:52:00,
2013-05-30 09:01:00,74.0,62.0,-100.00,WSW,244,7.0,12.0,67,0.00,,,0.02,254.000000,,2013-05-30 13:01:00,
2013-05-30 09:11:00,74.0,62.0,-100.00,WSW,244,7.0,12.0,67,0.00,,,0.02,254.000000,,2013-05-30 13:11:00,
2013-05-30 09:22:00,74.0,62.0,-100.00,WSW,244,7.0,12.0,67,0.00,,,0.02,254.000000,,2013-05-30 13:22:00,
2013-05-30 09:52:00,76.0,62.0,-100.00,WSW,249,8.0,18.0,62,0.00,,,0.01,415.000000,,2013-05-30 13:52:00,
2013-05-30 10:02:00,76.0,62.0,-100.00,WSW,249,8.0,18.0,62,0.00,,,0.01,415.000000,,2013-05-30 14:02:00,
2013-05-30 10:12:00,76.0,62.0,-100.00,WSW,249,8.0,18.0,62,0.00,,,0.01,415.000000,,2013-05-30 14:12:00,
2013-05-30 10:22:00,76.0,62.0,-100.00,WSW,249,8.0,18.0,62,0.00,,,0.01,415.000000,,2013-05-30 14:22:00,
2013-05-30 10:52:00,79.0,62.0,-100.00,WSW,240,9.0,15.0,56,0.00,,,0.01,569.000000,,2013-05-30 14:52:00,
2013-05-30 11:01:00,79.0,62.0,-100.00,WSW,240,9.0,15.0,56,0.00,,,0.01,569.000000,,2013-05-30 15:01:00,
2013-05-30 11:11:00,79.0,62.0,-100.00,WSW,240,9.0,15.0,56,0.00,,,0.01,569.000000,,2013-05-30 15:11:00,
2013-05-30 11:22:00,79.0,62.0,-100.00,WSW,240,9.0,15.0,56,0.00,,,0.01,569.000000,,2013-05-30 15:22:00,
2013-05-30 11:53:00,81.0,62.0,-100.00,SW,236,8.0,14.0,53,0.00,,,0.01,653.000000,,2013-05-30 15:53:00,
2013-05-30 12:03:00,81.0,62.0,-100.00,SW,236,8.0,14.0,53,0.00,,,0.01,653.000000,,2013-05-30 16:03:00,
2013-05-30 12:12:00,81.0,62.0,-100.00,SW,236,8.0,14.0,53,0.00,,,0.01,653.000000,,2013-05-30 16:12:00,
2013-05-30 12:23:00,81.0,62.0,-100.00,SW,236,8.0,14.0,53,0.00,,,0.01,653.000000,,2013-05-30 16:23:00,
2013-05-30 12:53:00,83.0,62.0,-100.00,SW,226,7.0,16.0,50,0.00,,,0.01,776.000000,,2013-05-30 16:53:00,
2013-05-30 13:03:00,83.0,62.0,-100.00,SW,226,7.0,16.0,50,0.00,,,0.01,776.000000,,2013-05-30 17:03:00,
2013-05-30 13:12:00,83.0,62.0,-100.00,SW,226,7.0,16.0,50,0.00,,,0.01,776.000000,,2013-05-30 17:12:00,
2013-05-30 13:22:00,83.0,62.0,-100.00,SW,226,7.0,16.0,50,0.00,,,0.01,776.000000,,2013-05-30 17:22:00,
2013-05-30 13:52:00,83.0,63.0,-100.00,WSW,244,9.0,15.0,51,0.00,,,0.01,838.000000,,2013-05-30 17:52:00,
2013-05-30 14:02:00,83.0,63.0,-100.00,WSW,244,9.0,15.0,51,0.00,,,0.01,838.000000,,2013-05-30 18:02:00,
2013-05-30 14:11:00,83.0,63.0,-100.00,WSW,244,9.0,15.0,51,0.00,,,0.01,838.000000,,2013-05-30 18:11:00,
2013-05-30 14:22:00,83.0,63.0,-100.00,WSW,244,9.0,15.0,51,0.00,,,0.01,838.000000,,2013-05-30 18:22:00,
2013-05-30 14:52:00,85.0,63.0,-100.00,WSW,243,8.0,18.0,48,0.00,,,0.00,846.000000,,2013-05-30 18:52:00,
2013-05-30 15:02:00,85.0,63.0,-100.00,WSW,243,8.0,18.0,48,0.00,,,0.00,846.000000,,2013-05-30 19:02:00,
2013-05-30 15:12:00,85.0,63.0,-100.00,WSW,243,8.0,18.0,48,0.00,,,0.00,846.000000,,2013-05-30 19:12:00,
2013-05-30 15:23:00,85.0,63.0,-100.00,WSW,243,8.0,18.0,48,0.00,,,0.00,846.000000,,2013-05-30 19:23:00,
2013-05-30 15:53:00,85.0,64.0,-100.00,WSW,245,9.0,16.0,49,0.00,,,0.00,791.000000,,2013-05-30 19:53:00,
2013-05-30 16:02:00,85.0,64.0,-100.00,WSW,245,9.0,16.0,49,0.00,,,0.00,791.000000,,2013-05-30 20:02:00,
2013-05-30 16:11:00,85.0,64.0,-100.00,WSW,245,9.0,16.0,49,0.00,,,0.00,791.000000,,2013-05-30 20:11:00,
2013-05-30 16:23:00,85.0,64.0,-100.00,WSW,245,9.0,16.0,49,0.00,,,0.00,791.000000,,2013-05-30 20:23:00,
2013-05-30 16:52:00,84.0,63.0,-100.00,WSW,243,11.0,20.0,49,0.00,,,0.00,691.000000,,2013-05-30 20:52:00,
2013-05-30 17:01:00,84.0,63.0,-100.00,WSW,243,11.0,20.0,49,0.00,,,0.00,691.000000,,2013-05-30 21:01:00,
2013-05-30 17:11:00,84.0,63.0,-100.00,WSW,243,11.0,20.0,49,0.00,,,0.00,691.000000,,2013-05-30 21:11:00,
2013-05-30 17:22:00,84.0,63.0,-100.00,WSW,243,11.0,20.0,49,0.00,,,0.00,691.000000,,2013-05-30 21:22:00,
2013-05-30 17:53:00,84.0,63.0,-100.00,WSW,239,8.0,17.0,50,0.00,,,0.00,525.000000,,2013-05-30 21:53:00,
2013-05-30 18:03:00,84.0,63.0,-100.00,WSW,239,8.0,17.0,50,0.00,,,0.00,525.000000,,2013-05-30 22:03:00,
2013-05-30 18:12:00,84.0,63.0,-100.00,WSW,239,8.0,17.0,50,0.00,,,0.00,525.000000,,2013-05-30 22:12:00,
2013-05-30 18:23:00,84.0,63.0,-100.00,WSW,239,8.0,17.0,50,0.00,,,0.00,525.000000,,2013-05-30 22:23:00,
2013-05-30 18:52:00,82.0,62.0,-100.00,WSW,241,10.0,17.0,51,0.00,,,0.00,393.000000,,2013-05-30 22:52:00,
2013-05-30 19:02:00,82.0,62.0,-100.00,WSW,241,10.0,17.0,51,0.00,,,0.00,393.000000,,2013-05-30 23:02:00,
2013-05-30 19:12:00,82.0,62.0,-100.00,WSW,241,10.0,17.0,51,0.00,,,0.00,393.000000,,2013-05-30 23:12:00,
2013-05-30 19:22:00,82.0,62.0,-100.00,WSW,241,10.0,17.0,51,0.00,,,0.00,393.000000,,2013-05-30 23:22:00,
2013-05-30 19:52:00,79.0,63.0,-100.00,WSW,243,5.0,15.0,59,0.00,,,0.00,111.000000,,2013-05-30 23:52:00,
2013-05-30 20:01:00,79.0,63.0,-100.00,WSW,243,5.0,15.0,59,0.00,,,0.00,111.000000,,2013-05-31 00:01:00,
2013-05-30 20:11:00,79.0,63.0,-100.00,WSW,243,5.0,15.0,59,0.00,,,0.00,111.000000,,2013-05-31 00:11:00,
2013-05-30 20:22:00,79.0,63.0,-100.00,WSW,243,5.0,15.0,59,0.00,,,0.00,111.000000,,2013-05-31 00:22:00,
2013-05-30 20:52:00,77.0,63.0,-100.00,WSW,238,4.0,9.0,63,0.00,,,0.00,56.000000,,2013-05-31 00:52:00,
2013-05-30 21:01:00,77.0,63.0,-100.00,WSW,238,4.0,9.0,63,0.00,,,0.00,56.000000,,2013-05-31 01:01:00,
2013-05-30 21:12:00,77.0,63.0,-100.00,WSW,238,4.0,9.0,63,0.00,,,0.00,56.000000,,2013-05-31 01:12:00,
2013-05-30 21:21:00,77.0,63.0,-100.00,WSW,238,4.0,9.0,63,0.00,,,0.00,56.000000,,2013-05-31 01:21:00,
2013-05-30 21:42:00,73.0,64.0,-100.00,South,186,1.0,7.0,73,0.00,,,0.00,2.000000,,2013-05-31 01:42:00,
2013-05-30 21:52:00,73.0,64.0,-100.00,South,186,1.0,7.0,73,0.00,,,0.00,2.000000,,2013-05-31 01:52:00,
2013-05-30 22:02:00,73.0,64.0,-100.00,South,186,1.0,7.0,73,0.00,,,0.00,2.000000,,2013-05-31 02:02:00,
2013-05-30 22:11:00,73.0,64.0,-100.00,South,186,1.0,7.0,73,0.00,,,0.00,2.000000,,2013-05-31 02:11:00,
2013-05-30 22:22:00,73.0,64.0,-100.00,South,186,1.0,7.0,73,0.00,,,0.00,2.000000,,2013-05-31 02:22:00,
2013-05-30 22:52:00,69.0,64.0,-100.00,SSE,150,0.0,2.0,85,0.00,,,0.00,0.000000,,2013-05-31 02:52:00,
2013-05-30 23:01:00,69.0,64.0,-100.00,SSE,150,0.0,2.0,85,0.00,,,0.00,0.000000,,2013-05-31 03:01:00,
2013-05-30 23:11:00,69.0,64.0,-100.00,SSE,150,0.0,2.0,85,0.00,,,0.00,0.000000,,2013-05-31 03:11:00,
2013-05-30 23:22:00,69.0,64.0,-100.00,SSE,150,0.0,2.0,85,0.00,,,0.00,0.000000,,2013-05-31 03:22:00,
2013-05-30 23:53:00,69.0,65.0,-100.00,SE,129,1.0,2.0,87,0.00,,,0.00,0.000000,,2013-05-31 03:53:00,